sensor_id;sensor_type;location;lat;lon;timestamp;temperature;humidity
9446;DHT22;4761;49.490;10.908;2024-02-14T00:00:36;16.30;44.10
9446;DHT22;4761;49.490;10.908;2024-02-14T00:03:02;16.30;44.10
9446;DHT22;4761;49.490;10.908;2024-02-14T00:05:28;16.30;44.00
9446;DHT22;4761;49.490;10.908;2024-02-14T00:07:54;16.30;44.00
9446;DHT22;4761;49.490;10.908;2024-02-14T00:10:19;16.30;44.00
9446;DHT22;4761;49.490;10.908;2024-02-14T00:12:45;16.30;43.90
9446;DHT22;4761;49.490;10.908;2024-02-14T00:15:11;16.30;43.90
9446;DHT22;4761;49.490;10.908;2024-02-14T00:17:37;16.30;43.90
9446;DHT22;4761;49.490;10.908;2024-02-14T00:20:03;16.30;43.90
9446;DHT22;4761;49.490;10.908;2024-02-14T00:22:30;16.30;43.90
9446;DHT22;4761;49.490;10.908;2024-02-14T00:24:55;16.30;43.90
9446;DHT22;4761;49.490;10.908;2024-02-14T00:27:21;16.30;43.80
9446;DHT22;4761;49.490;10.908;2024-02-14T00:29:46;16.30;43.90
9446;DHT22;4761;49.490;10.908;2024-02-14T00:32:14;16.30;43.80
9446;DHT22;4761;49.490;10.908;2024-02-14T00:34:40;16.30;43.80
9446;DHT22;4761;49.490;10.908;2024-02-14T00:37:06;16.30;43.80
9446;DHT22;4761;49.490;10.908;2024-02-14T00:39:32;16.30;43.80
9446;DHT22;4761;49.490;10.908;2024-02-14T00:41:57;16.30;43.70
9446;DHT22;4761;49.490;10.908;2024-02-14T00:44:23;16.30;43.70
9446;DHT22;4761;49.490;10.908;2024-02-14T00:46:48;16.30;43.70
9446;DHT22;4761;49.490;10.908;2024-02-14T00:49:14;16.30;43.70
9446;DHT22;4761;49.490;10.908;2024-02-14T00:51:40;16.30;43.70
9446;DHT22;4761;49.490;10.908;2024-02-14T00:54:09;16.30;43.70
9446;DHT22;4761;49.490;10.908;2024-02-14T00:56:34;16.30;43.70
9446;DHT22;4761;49.490;10.908;2024-02-14T00:59:01;16.30;43.70
9446;DHT22;4761;49.490;10.908;2024-02-14T01:01:27;16.30;43.70
9446;DHT22;4761;49.490;10.908;2024-02-14T01:03:52;16.30;43.70
9446;DHT22;4761;49.490;10.908;2024-02-14T01:06:18;16.30;43.70
9446;DHT22;4761;49.490;10.908;2024-02-14T01:08:45;16.30;43.60
9446;DHT22;4761;49.490;10.908;2024-02-14T01:11:10;16.30;43.60
9446;DHT22;4761;49.490;10.908;2024-02-14T01:13:36;16.30;43.60
9446;DHT22;4761;49.490;10.908;2024-02-14T01:16:03;16.30;43.60
9446;DHT22;4761;49.490;10.908;2024-02-14T01:18:29;16.30;43.60
9446;DHT22;4761;49.490;10.908;2024-02-14T01:20:55;16.30;44.20
9446;DHT22;4761;49.490;10.908;2024-02-14T01:23:20;16.30;43.50
9446;DHT22;4761;49.490;10.908;2024-02-14T01:25:46;16.30;43.50
9446;DHT22;4761;49.490;10.908;2024-02-14T01:28:11;16.30;43.50
9446;DHT22;4761;49.490;10.908;2024-02-14T01:30:37;16.30;43.50
9446;DHT22;4761;49.490;10.908;2024-02-14T01:33:03;16.30;43.50
9446;DHT22;4761;49.490;10.908;2024-02-14T01:35:31;16.30;43.50
9446;DHT22;4761;49.490;10.908;2024-02-14T01:37:56;16.30;43.50
9446;DHT22;4761;49.490;10.908;2024-02-14T01:40:23;16.30;44.10
9446;DHT22;4761;49.490;10.908;2024-02-14T01:42:48;16.30;43.40
9446;DHT22;4761;49.490;10.908;2024-02-14T01:45:14;16.30;43.40
9446;DHT22;4761;49.490;10.908;2024-02-14T01:47:40;16.30;43.40
9446;DHT22;4761;49.490;10.908;2024-02-14T01:50:08;16.30;43.40
9446;DHT22;4761;49.490;10.908;2024-02-14T01:52:39;16.30;43.40
9446;DHT22;4761;49.490;10.908;2024-02-14T01:55:06;16.30;43.40
9446;DHT22;4761;49.490;10.908;2024-02-14T01:57:33;16.30;43.40
9446;DHT22;4761;49.490;10.908;2024-02-14T02:00:00;16.30;43.30
9446;DHT22;4761;49.490;10.908;2024-02-14T02:02:30;16.30;43.30
9446;DHT22;4761;49.490;10.908;2024-02-14T02:04:55;16.30;43.20
9446;DHT22;4761;49.490;10.908;2024-02-14T02:07:21;16.30;43.20
9446;DHT22;4761;49.490;10.908;2024-02-14T02:09:46;16.30;43.10
9446;DHT22;4761;49.490;10.908;2024-02-14T02:12:12;16.30;43.10
9446;DHT22;4761;49.490;10.908;2024-02-14T02:14:37;16.40;43.30
9446;DHT22;4761;49.490;10.908;2024-02-14T02:17:05;16.30;43.10
9446;DHT22;4761;49.490;10.908;2024-02-14T02:19:33;16.30;43.20
9446;DHT22;4761;49.490;10.908;2024-02-14T02:21:59;16.30;43.10
9446;DHT22;4761;49.490;10.908;2024-02-14T02:24:25;16.30;43.10
9446;DHT22;4761;49.490;10.908;2024-02-14T02:26:50;16.30;43.10
9446;DHT22;4761;49.490;10.908;2024-02-14T02:29:16;16.30;43.10
9446;DHT22;4761;49.490;10.908;2024-02-14T02:31:41;16.30;43.10
9446;DHT22;4761;49.490;10.908;2024-02-14T02:34:07;16.30;43.10
9446;DHT22;4761;49.490;10.908;2024-02-14T02:36:36;16.30;43.10
9446;DHT22;4761;49.490;10.908;2024-02-14T02:39:03;16.30;43.10
9446;DHT22;4761;49.490;10.908;2024-02-14T02:41:30;16.30;43.10
9446;DHT22;4761;49.490;10.908;2024-02-14T02:43:57;16.30;43.10
9446;DHT22;4761;49.490;10.908;2024-02-14T02:46:22;16.30;43.00
9446;DHT22;4761;49.490;10.908;2024-02-14T02:48:48;16.30;43.00
9446;DHT22;4761;49.490;10.908;2024-02-14T02:51:16;16.30;43.00
9446;DHT22;4761;49.490;10.908;2024-02-14T02:53:43;16.30;43.00
9446;DHT22;4761;49.490;10.908;2024-02-14T02:56:08;16.30;43.00
9446;DHT22;4761;49.490;10.908;2024-02-14T02:58:34;16.30;43.00
9446;DHT22;4761;49.490;10.908;2024-02-14T03:01:00;16.30;43.00
9446;DHT22;4761;49.490;10.908;2024-02-14T03:03:26;16.30;43.00
9446;DHT22;4761;49.490;10.908;2024-02-14T03:05:53;16.30;43.00
9446;DHT22;4761;49.490;10.908;2024-02-14T03:08:20;16.30;42.90
9446;DHT22;4761;49.490;10.908;2024-02-14T03:10:47;16.30;42.90
9446;DHT22;4761;49.490;10.908;2024-02-14T03:13:12;16.30;43.00
9446;DHT22;4761;49.490;10.908;2024-02-14T03:15:38;16.30;42.90
9446;DHT22;4761;49.490;10.908;2024-02-14T03:18:04;16.30;43.00
9446;DHT22;4761;49.490;10.908;2024-02-14T03:20:33;16.30;43.00
9446;DHT22;4761;49.490;10.908;2024-02-14T03:23:00;16.30;43.00
9446;DHT22;4761;49.490;10.908;2024-02-14T03:25:26;16.30;43.00
9446;DHT22;4761;49.490;10.908;2024-02-14T03:27:51;16.30;43.00
9446;DHT22;4761;49.490;10.908;2024-02-14T03:30:19;16.30;43.00
9446;DHT22;4761;49.490;10.908;2024-02-14T03:32:49;16.30;42.90
9446;DHT22;4761;49.490;10.908;2024-02-14T03:35:14;16.30;42.90
9446;DHT22;4761;49.490;10.908;2024-02-14T03:37:41;16.30;42.90
9446;DHT22;4761;49.490;10.908;2024-02-14T03:40:08;16.30;42.90
9446;DHT22;4761;49.490;10.908;2024-02-14T03:42:35;16.30;42.90
9446;DHT22;4761;49.490;10.908;2024-02-14T03:45:00;16.30;42.90
9446;DHT22;4761;49.490;10.908;2024-02-14T03:47:34;16.30;42.80
9446;DHT22;4761;49.490;10.908;2024-02-14T03:49:59;16.30;42.80
9446;DHT22;4761;49.490;10.908;2024-02-14T03:52:25;16.30;42.80
9446;DHT22;4761;49.490;10.908;2024-02-14T03:54:51;16.30;42.80
9446;DHT22;4761;49.490;10.908;2024-02-14T03:57:17;16.30;42.80
9446;DHT22;4761;49.490;10.908;2024-02-14T03:59:46;16.30;42.80
9446;DHT22;4761;49.490;10.908;2024-02-14T04:02:12;16.30;42.80
9446;DHT22;4761;49.490;10.908;2024-02-14T04:04:41;16.30;42.70
9446;DHT22;4761;49.490;10.908;2024-02-14T04:07:07;16.30;42.70
9446;DHT22;4761;49.490;10.908;2024-02-14T04:09:36;16.30;42.70
9446;DHT22;4761;49.490;10.908;2024-02-14T04:12:02;16.30;42.60
9446;DHT22;4761;49.490;10.908;2024-02-14T04:14:27;16.30;43.20
9446;DHT22;4761;49.490;10.908;2024-02-14T04:16:54;16.20;42.50
9446;DHT22;4761;49.490;10.908;2024-02-14T04:19:20;16.30;42.60
9446;DHT22;4761;49.490;10.908;2024-02-14T04:21:46;16.30;42.60
9446;DHT22;4761;49.490;10.908;2024-02-14T04:24:12;16.30;42.70
9446;DHT22;4761;49.490;10.908;2024-02-14T04:26:37;16.30;42.70
9446;DHT22;4761;49.490;10.908;2024-02-14T04:29:03;16.30;42.70
9446;DHT22;4761;49.490;10.908;2024-02-14T04:31:28;16.30;42.70
9446;DHT22;4761;49.490;10.908;2024-02-14T04:33:57;16.30;42.70
9446;DHT22;4761;49.490;10.908;2024-02-14T04:36:23;16.30;42.70
9446;DHT22;4761;49.490;10.908;2024-02-14T04:38:49;16.30;42.70
9446;DHT22;4761;49.490;10.908;2024-02-14T04:41:15;16.30;42.80
9446;DHT22;4761;49.490;10.908;2024-02-14T04:43:41;16.30;42.80
9446;DHT22;4761;49.490;10.908;2024-02-14T04:46:07;16.30;42.80
9446;DHT22;4761;49.490;10.908;2024-02-14T04:48:36;16.20;42.70
9446;DHT22;4761;49.490;10.908;2024-02-14T04:51:03;16.30;42.80
9446;DHT22;4761;49.490;10.908;2024-02-14T04:53:29;16.20;42.70
9446;DHT22;4761;49.490;10.908;2024-02-14T04:55:55;16.30;42.80
9446;DHT22;4761;49.490;10.908;2024-02-14T04:58:20;16.20;42.80
9446;DHT22;4761;49.490;10.908;2024-02-14T05:00:46;16.30;42.90
9446;DHT22;4761;49.490;10.908;2024-02-14T05:03:12;16.30;42.90
9446;DHT22;4761;49.490;10.908;2024-02-14T05:05:37;16.30;42.90
9446;DHT22;4761;49.490;10.908;2024-02-14T05:08:03;16.30;43.00
9446;DHT22;4761;49.490;10.908;2024-02-14T05:10:30;16.30;42.90
9446;DHT22;4761;49.490;10.908;2024-02-14T05:12:56;16.30;43.00
9446;DHT22;4761;49.490;10.908;2024-02-14T05:15:21;16.20;43.50
9446;DHT22;4761;49.490;10.908;2024-02-14T05:17:47;16.20;42.90
9446;DHT22;4761;49.490;10.908;2024-02-14T05:20:14;16.30;43.00
9446;DHT22;4761;49.490;10.908;2024-02-14T05:22:40;16.30;42.90
9446;DHT22;4761;49.490;10.908;2024-02-14T05:25:06;16.30;43.00
9446;DHT22;4761;49.490;10.908;2024-02-14T05:27:35;16.30;42.90
9446;DHT22;4761;49.490;10.908;2024-02-14T05:30:01;16.30;43.00
9446;DHT22;4761;49.490;10.908;2024-02-14T05:32:31;16.30;43.00
9446;DHT22;4761;49.490;10.908;2024-02-14T05:34:57;16.30;43.00
9446;DHT22;4761;49.490;10.908;2024-02-14T05:37:22;16.30;43.10
9446;DHT22;4761;49.490;10.908;2024-02-14T05:39:48;16.30;43.10
9446;DHT22;4761;49.490;10.908;2024-02-14T05:42:13;16.30;43.10
9446;DHT22;4761;49.490;10.908;2024-02-14T05:44:41;16.30;43.10
9446;DHT22;4761;49.490;10.908;2024-02-14T05:47:08;16.30;43.20
9446;DHT22;4761;49.490;10.908;2024-02-14T05:49:34;16.30;43.20
9446;DHT22;4761;49.490;10.908;2024-02-14T05:51:59;16.30;43.20
9446;DHT22;4761;49.490;10.908;2024-02-14T05:54:25;16.30;43.20
9446;DHT22;4761;49.490;10.908;2024-02-14T05:56:51;16.30;43.20
9446;DHT22;4761;49.490;10.908;2024-02-14T05:59:16;16.30;43.20
9446;DHT22;4761;49.490;10.908;2024-02-14T06:01:42;16.30;43.30
9446;DHT22;4761;49.490;10.908;2024-02-14T06:04:07;16.30;43.30
9446;DHT22;4761;49.490;10.908;2024-02-14T06:06:33;16.30;43.20
9446;DHT22;4761;49.490;10.908;2024-02-14T06:08:59;16.30;43.30
9446;DHT22;4761;49.490;10.908;2024-02-14T06:11:24;16.30;43.30
9446;DHT22;4761;49.490;10.908;2024-02-14T06:13:50;16.20;43.30
9446;DHT22;4761;49.490;10.908;2024-02-14T06:16:15;16.30;43.30
9446;DHT22;4761;49.490;10.908;2024-02-14T06:18:41;16.30;43.50
9446;DHT22;4761;49.490;10.908;2024-02-14T06:21:07;16.30;43.30
9446;DHT22;4761;49.490;10.908;2024-02-14T06:23:33;16.30;43.40
9446;DHT22;4761;49.490;10.908;2024-02-14T06:25:59;16.30;43.40
9446;DHT22;4761;49.490;10.908;2024-02-14T06:28:24;16.20;43.40
9446;DHT22;4761;49.490;10.908;2024-02-14T06:30:50;16.20;43.40
9446;DHT22;4761;49.490;10.908;2024-02-14T06:33:16;16.30;43.50
9446;DHT22;4761;49.490;10.908;2024-02-14T06:35:41;16.30;43.50
9446;DHT22;4761;49.490;10.908;2024-02-14T06:38:07;16.30;43.50
9446;DHT22;4761;49.490;10.908;2024-02-14T06:40:33;16.20;43.40
9446;DHT22;4761;49.490;10.908;2024-02-14T06:42:59;16.30;43.60
9446;DHT22;4761;49.490;10.908;2024-02-14T06:45:26;16.30;43.60
9446;DHT22;4761;49.490;10.908;2024-02-14T06:47:53;16.30;43.60
9446;DHT22;4761;49.490;10.908;2024-02-14T06:50:19;16.30;43.60
9446;DHT22;4761;49.490;10.908;2024-02-14T06:52:44;16.30;43.70
9446;DHT22;4761;49.490;10.908;2024-02-14T06:55:10;16.30;43.70
9446;DHT22;4761;49.490;10.908;2024-02-14T06:57:35;16.30;43.70
9446;DHT22;4761;49.490;10.908;2024-02-14T07:00:02;16.30;44.40
9446;DHT22;4761;49.490;10.908;2024-02-14T07:02:31;16.30;43.80
9446;DHT22;4761;49.490;10.908;2024-02-14T07:04:56;16.30;43.80
9446;DHT22;4761;49.490;10.908;2024-02-14T07:07:22;16.30;43.90
9446;DHT22;4761;49.490;10.908;2024-02-14T07:09:47;16.30;43.90
9446;DHT22;4761;49.490;10.908;2024-02-14T07:12:13;16.30;44.00
9446;DHT22;4761;49.490;10.908;2024-02-14T07:14:38;16.30;44.00
9446;DHT22;4761;49.490;10.908;2024-02-14T07:17:04;16.30;44.10
9446;DHT22;4761;49.490;10.908;2024-02-14T07:19:30;16.30;44.20
9446;DHT22;4761;49.490;10.908;2024-02-14T07:21:55;16.30;44.30
9446;DHT22;4761;49.490;10.908;2024-02-14T07:24:21;16.30;44.40
9446;DHT22;4761;49.490;10.908;2024-02-14T07:26:47;16.30;44.50
9446;DHT22;4761;49.490;10.908;2024-02-14T07:29:12;16.30;44.60
9446;DHT22;4761;49.490;10.908;2024-02-14T07:31:38;16.30;44.70
9446;DHT22;4761;49.490;10.908;2024-02-14T07:34:03;16.30;44.70
9446;DHT22;4761;49.490;10.908;2024-02-14T07:36:29;16.30;44.70
9446;DHT22;4761;49.490;10.908;2024-02-14T07:38:56;16.30;44.80
9446;DHT22;4761;49.490;10.908;2024-02-14T07:41:21;16.30;44.80
9446;DHT22;4761;49.490;10.908;2024-02-14T07:43:47;16.30;45.00
9446;DHT22;4761;49.490;10.908;2024-02-14T07:46:19;16.30;45.00
9446;DHT22;4761;49.490;10.908;2024-02-14T07:48:45;16.30;45.00
9446;DHT22;4761;49.490;10.908;2024-02-14T07:51:11;16.30;45.10
9446;DHT22;4761;49.490;10.908;2024-02-14T07:53:37;16.30;45.10
9446;DHT22;4761;49.490;10.908;2024-02-14T07:56:02;16.30;45.10
9446;DHT22;4761;49.490;10.908;2024-02-14T07:58:28;16.30;45.10
9446;DHT22;4761;49.490;10.908;2024-02-14T08:00:53;16.30;45.10
9446;DHT22;4761;49.490;10.908;2024-02-14T08:03:19;16.30;45.20
9446;DHT22;4761;49.490;10.908;2024-02-14T08:05:44;16.30;45.20
9446;DHT22;4761;49.490;10.908;2024-02-14T08:08:10;16.30;45.20
9446;DHT22;4761;49.490;10.908;2024-02-14T08:10:36;16.30;45.30
9446;DHT22;4761;49.490;10.908;2024-02-14T08:13:01;16.30;45.40
9446;DHT22;4761;49.490;10.908;2024-02-14T08:15:29;16.30;45.40
9446;DHT22;4761;49.490;10.908;2024-02-14T08:17:55;16.30;45.40
9446;DHT22;4761;49.490;10.908;2024-02-14T08:20:22;16.30;45.50
9446;DHT22;4761;49.490;10.908;2024-02-14T08:22:48;16.30;45.40
9446;DHT22;4761;49.490;10.908;2024-02-14T08:25:14;16.30;45.40
9446;DHT22;4761;49.490;10.908;2024-02-14T08:27:39;16.30;45.50
9446;DHT22;4761;49.490;10.908;2024-02-14T08:30:05;16.40;45.50
9446;DHT22;4761;49.490;10.908;2024-02-14T08:32:33;16.30;45.50
9446;DHT22;4761;49.490;10.908;2024-02-14T08:34:58;16.30;45.60
9446;DHT22;4761;49.490;10.908;2024-02-14T08:37:24;16.30;45.60
9446;DHT22;4761;49.490;10.908;2024-02-14T08:39:50;16.30;45.70
9446;DHT22;4761;49.490;10.908;2024-02-14T08:42:16;16.30;45.80
9446;DHT22;4761;49.490;10.908;2024-02-14T08:44:41;16.30;45.90
9446;DHT22;4761;49.490;10.908;2024-02-14T08:47:07;16.30;45.80
9446;DHT22;4761;49.490;10.908;2024-02-14T08:49:32;16.30;45.90
9446;DHT22;4761;49.490;10.908;2024-02-14T08:51:59;16.30;45.90
9446;DHT22;4761;49.490;10.908;2024-02-14T08:54:24;16.30;46.00
9446;DHT22;4761;49.490;10.908;2024-02-14T08:56:50;16.30;46.00
9446;DHT22;4761;49.490;10.908;2024-02-14T08:59:18;16.30;46.10
9446;DHT22;4761;49.490;10.908;2024-02-14T09:01:45;16.30;46.10
9446;DHT22;4761;49.490;10.908;2024-02-14T09:04:11;16.30;46.10
9446;DHT22;4761;49.490;10.908;2024-02-14T09:06:36;16.30;46.10
9446;DHT22;4761;49.490;10.908;2024-02-14T09:09:04;16.30;46.10
9446;DHT22;4761;49.490;10.908;2024-02-14T09:11:30;16.30;46.10
9446;DHT22;4761;49.490;10.908;2024-02-14T09:13:57;16.30;46.10
9446;DHT22;4761;49.490;10.908;2024-02-14T09:16:27;16.30;46.10
9446;DHT22;4761;49.490;10.908;2024-02-14T09:18:53;16.30;46.10
9446;DHT22;4761;49.490;10.908;2024-02-14T09:21:18;16.30;46.20
9446;DHT22;4761;49.490;10.908;2024-02-14T09:23:47;16.30;46.20
9446;DHT22;4761;49.490;10.908;2024-02-14T09:26:12;16.30;46.30
9446;DHT22;4761;49.490;10.908;2024-02-14T09:28:40;16.30;46.30
9446;DHT22;4761;49.490;10.908;2024-02-14T09:31:06;16.30;46.30
9446;DHT22;4761;49.490;10.908;2024-02-14T09:33:31;16.30;46.80
9446;DHT22;4761;49.490;10.908;2024-02-14T09:35:57;16.40;46.30
9446;DHT22;4761;49.490;10.908;2024-02-14T09:38:22;16.40;46.30
9446;DHT22;4761;49.490;10.908;2024-02-14T09:40:51;16.40;46.30
9446;DHT22;4761;49.490;10.908;2024-02-14T09:43:31;16.30;46.30
9446;DHT22;4761;49.490;10.908;2024-02-14T09:46:01;16.40;46.50
9446;DHT22;4761;49.490;10.908;2024-02-14T09:48:29;16.30;46.50
9446;DHT22;4761;49.490;10.908;2024-02-14T09:50:56;16.40;46.60
9446;DHT22;4761;49.490;10.908;2024-02-14T09:53:23;16.40;46.60
9446;DHT22;4761;49.490;10.908;2024-02-14T09:55:49;16.40;46.50
9446;DHT22;4761;49.490;10.908;2024-02-14T09:58:16;16.30;46.40
9446;DHT22;4761;49.490;10.908;2024-02-14T10:00:42;16.40;46.60
9446;DHT22;4761;49.490;10.908;2024-02-14T10:03:07;16.30;47.00
9446;DHT22;4761;49.490;10.908;2024-02-14T10:05:33;16.30;46.50
9446;DHT22;4761;49.490;10.908;2024-02-14T10:07:58;16.30;46.50
9446;DHT22;4761;49.490;10.908;2024-02-14T10:10:25;16.30;46.50
9446;DHT22;4761;49.490;10.908;2024-02-14T10:12:50;16.30;46.50
9446;DHT22;4761;49.490;10.908;2024-02-14T10:15:16;16.30;46.50
9446;DHT22;4761;49.490;10.908;2024-02-14T10:17:43;16.30;46.50
9446;DHT22;4761;49.490;10.908;2024-02-14T10:20:09;16.30;46.50
9446;DHT22;4761;49.490;10.908;2024-02-14T10:22:37;16.30;46.50
9446;DHT22;4761;49.490;10.908;2024-02-14T10:25:03;16.30;46.50
9446;DHT22;4761;49.490;10.908;2024-02-14T10:27:30;16.30;46.50
9446;DHT22;4761;49.490;10.908;2024-02-14T10:29:57;16.30;46.60
9446;DHT22;4761;49.490;10.908;2024-02-14T10:32:23;16.30;46.60
9446;DHT22;4761;49.490;10.908;2024-02-14T10:34:49;16.30;46.70
9446;DHT22;4761;49.490;10.908;2024-02-14T10:37:15;16.30;46.70
9446;DHT22;4761;49.490;10.908;2024-02-14T10:39:46;16.30;46.70
9446;DHT22;4761;49.490;10.908;2024-02-14T10:42:13;16.30;46.70
9446;DHT22;4761;49.490;10.908;2024-02-14T10:44:39;16.30;46.80
9446;DHT22;4761;49.490;10.908;2024-02-14T10:47:06;16.30;46.90
9446;DHT22;4761;49.490;10.908;2024-02-14T10:49:37;16.30;47.00
9446;DHT22;4761;49.490;10.908;2024-02-14T10:52:05;16.30;47.00
9446;DHT22;4761;49.490;10.908;2024-02-14T10:54:33;16.30;47.10
9446;DHT22;4761;49.490;10.908;2024-02-14T10:57:05;16.30;47.20
9446;DHT22;4761;49.490;10.908;2024-02-14T10:59:41;16.30;47.30
9446;DHT22;4761;49.490;10.908;2024-02-14T11:02:08;16.30;47.40
9446;DHT22;4761;49.490;10.908;2024-02-14T11:04:34;16.30;47.50
9446;DHT22;4761;49.490;10.908;2024-02-14T11:07:00;16.30;47.60
9446;DHT22;4761;49.490;10.908;2024-02-14T11:09:37;16.30;47.70
9446;DHT22;4761;49.490;10.908;2024-02-14T11:12:07;16.30;47.80
9446;DHT22;4761;49.490;10.908;2024-02-14T11:14:34;16.30;47.90
9446;DHT22;4761;49.490;10.908;2024-02-14T11:17:02;16.30;47.90
9446;DHT22;4761;49.490;10.908;2024-02-14T11:19:32;16.30;48.00
9446;DHT22;4761;49.490;10.908;2024-02-14T11:22:13;16.30;48.10
9446;DHT22;4761;49.490;10.908;2024-02-14T11:24:38;16.30;48.10
9446;DHT22;4761;49.490;10.908;2024-02-14T11:27:12;16.30;48.10
9446;DHT22;4761;49.490;10.908;2024-02-14T11:29:51;16.30;48.10
9446;DHT22;4761;49.490;10.908;2024-02-14T11:32:17;16.30;48.30
9446;DHT22;4761;49.490;10.908;2024-02-14T11:34:43;16.30;48.30
9446;DHT22;4761;49.490;10.908;2024-02-14T11:37:09;16.30;48.40
9446;DHT22;4761;49.490;10.908;2024-02-14T11:39:35;16.30;48.40
9446;DHT22;4761;49.490;10.908;2024-02-14T11:42:01;16.30;48.50
9446;DHT22;4761;49.490;10.908;2024-02-14T11:44:27;16.30;48.60
9446;DHT22;4761;49.490;10.908;2024-02-14T11:46:52;16.40;48.70
9446;DHT22;4761;49.490;10.908;2024-02-14T11:49:19;16.40;48.70
9446;DHT22;4761;49.490;10.908;2024-02-14T11:51:44;16.30;48.70
9446;DHT22;4761;49.490;10.908;2024-02-14T11:54:10;16.30;48.80
9446;DHT22;4761;49.490;10.908;2024-02-14T11:56:39;16.30;48.90
9446;DHT22;4761;49.490;10.908;2024-02-14T11:59:07;16.40;48.90
9446;DHT22;4761;49.490;10.908;2024-02-14T12:01:37;16.40;49.00
9446;DHT22;4761;49.490;10.908;2024-02-14T12:04:04;16.40;49.00
9446;DHT22;4761;49.490;10.908;2024-02-14T12:06:31;16.40;49.10
9446;DHT22;4761;49.490;10.908;2024-02-14T12:08:58;16.40;49.10
9446;DHT22;4761;49.490;10.908;2024-02-14T12:11:27;16.40;49.20
9446;DHT22;4761;49.490;10.908;2024-02-14T12:13:53;16.40;49.30
9446;DHT22;4761;49.490;10.908;2024-02-14T12:16:22;16.40;49.30
9446;DHT22;4761;49.490;10.908;2024-02-14T12:18:48;16.30;49.30
9446;DHT22;4761;49.490;10.908;2024-02-14T12:21:13;16.40;49.40
9446;DHT22;4761;49.490;10.908;2024-02-14T12:23:39;16.40;49.50
9446;DHT22;4761;49.490;10.908;2024-02-14T12:26:05;16.30;49.50
9446;DHT22;4761;49.490;10.908;2024-02-14T12:28:31;16.40;49.50
9446;DHT22;4761;49.490;10.908;2024-02-14T12:30:57;16.40;49.50
9446;DHT22;4761;49.490;10.908;2024-02-14T12:33:26;16.40;49.60
9446;DHT22;4761;49.490;10.908;2024-02-14T12:35:57;16.40;49.60
9446;DHT22;4761;49.490;10.908;2024-02-14T12:38:24;16.40;49.60
9446;DHT22;4761;49.490;10.908;2024-02-14T12:40:50;16.40;49.70
9446;DHT22;4761;49.490;10.908;2024-02-14T12:43:19;16.40;49.80
9446;DHT22;4761;49.490;10.908;2024-02-14T12:45:45;16.30;49.80
9446;DHT22;4761;49.490;10.908;2024-02-14T12:48:12;16.40;49.90
9446;DHT22;4761;49.490;10.908;2024-02-14T12:50:39;16.40;50.10
9446;DHT22;4761;49.490;10.908;2024-02-14T12:53:06;16.40;50.40
9446;DHT22;4761;49.490;10.908;2024-02-14T12:55:32;16.40;50.50
9446;DHT22;4761;49.490;10.908;2024-02-14T12:57:57;16.40;50.60
9446;DHT22;4761;49.490;10.908;2024-02-14T13:00:23;16.30;50.70
9446;DHT22;4761;49.490;10.908;2024-02-14T13:02:50;16.40;50.90
9446;DHT22;4761;49.490;10.908;2024-02-14T13:05:16;16.30;51.00
9446;DHT22;4761;49.490;10.908;2024-02-14T13:07:43;16.40;51.20
9446;DHT22;4761;49.490;10.908;2024-02-14T13:10:08;16.40;51.30
9446;DHT22;4761;49.490;10.908;2024-02-14T13:12:39;16.40;51.40
9446;DHT22;4761;49.490;10.908;2024-02-14T13:15:06;16.40;51.50
9446;DHT22;4761;49.490;10.908;2024-02-14T13:17:31;16.40;51.50
9446;DHT22;4761;49.490;10.908;2024-02-14T13:19:57;16.40;51.40
9446;DHT22;4761;49.490;10.908;2024-02-14T13:22:25;16.40;51.50
9446;DHT22;4761;49.490;10.908;2024-02-14T13:24:50;16.40;51.60
9446;DHT22;4761;49.490;10.908;2024-02-14T13:27:16;16.40;51.50
9446;DHT22;4761;49.490;10.908;2024-02-14T13:29:41;16.40;51.60
9446;DHT22;4761;49.490;10.908;2024-02-14T13:32:08;16.40;51.60
9446;DHT22;4761;49.490;10.908;2024-02-14T13:34:34;16.40;51.60
9446;DHT22;4761;49.490;10.908;2024-02-14T13:37:00;16.40;51.70
9446;DHT22;4761;49.490;10.908;2024-02-14T13:39:25;16.40;51.70
9446;DHT22;4761;49.490;10.908;2024-02-14T13:41:51;16.40;51.70
9446;DHT22;4761;49.490;10.908;2024-02-14T13:44:17;16.30;51.60
9446;DHT22;4761;49.490;10.908;2024-02-14T13:46:44;16.40;51.90
9446;DHT22;4761;49.490;10.908;2024-02-14T13:49:11;16.40;52.30
9446;DHT22;4761;49.490;10.908;2024-02-14T13:51:38;16.40;52.60
9446;DHT22;4761;49.490;10.908;2024-02-14T13:54:04;16.30;52.90
9446;DHT22;4761;49.490;10.908;2024-02-14T13:56:30;16.40;53.30
9446;DHT22;4761;49.490;10.908;2024-02-14T13:58:55;16.40;53.70
9446;DHT22;4761;49.490;10.908;2024-02-14T14:01:21;16.30;53.90
9446;DHT22;4761;49.490;10.908;2024-02-14T14:03:46;16.30;54.10
9446;DHT22;4761;49.490;10.908;2024-02-14T14:06:13;16.30;54.40
9446;DHT22;4761;49.490;10.908;2024-02-14T14:08:39;16.40;54.70
9446;DHT22;4761;49.490;10.908;2024-02-14T14:11:05;16.40;54.90
9446;DHT22;4761;49.490;10.908;2024-02-14T14:13:31;16.40;55.10
9446;DHT22;4761;49.490;10.908;2024-02-14T14:15:59;16.40;55.30
9446;DHT22;4761;49.490;10.908;2024-02-14T14:18:24;16.40;55.50
9446;DHT22;4761;49.490;10.908;2024-02-14T14:20:50;16.40;55.70
9446;DHT22;4761;49.490;10.908;2024-02-14T14:23:15;16.40;55.90
9446;DHT22;4761;49.490;10.908;2024-02-14T14:25:41;16.40;56.10
9446;DHT22;4761;49.490;10.908;2024-02-14T14:28:07;16.30;56.30
9446;DHT22;4761;49.490;10.908;2024-02-14T14:30:35;16.30;56.40
9446;DHT22;4761;49.490;10.908;2024-02-14T14:33:00;16.40;56.60
9446;DHT22;4761;49.490;10.908;2024-02-14T14:35:26;16.40;56.70
9446;DHT22;4761;49.490;10.908;2024-02-14T14:37:51;16.40;56.80
9446;DHT22;4761;49.490;10.908;2024-02-14T14:40:17;16.40;56.90
9446;DHT22;4761;49.490;10.908;2024-02-14T14:42:43;16.40;57.00
9446;DHT22;4761;49.490;10.908;2024-02-14T14:45:08;16.40;57.20
9446;DHT22;4761;49.490;10.908;2024-02-14T14:47:34;16.40;57.30
9446;DHT22;4761;49.490;10.908;2024-02-14T14:50:00;16.40;57.50
9446;DHT22;4761;49.490;10.908;2024-02-14T14:52:25;16.40;57.60
9446;DHT22;4761;49.490;10.908;2024-02-14T14:54:51;16.40;57.70
9446;DHT22;4761;49.490;10.908;2024-02-14T14:57:16;16.30;57.70
9446;DHT22;4761;49.490;10.908;2024-02-14T14:59:42;16.40;57.90
9446;DHT22;4761;49.490;10.908;2024-02-14T15:02:08;16.30;58.00
9446;DHT22;4761;49.490;10.908;2024-02-14T15:04:34;16.40;58.20
9446;DHT22;4761;49.490;10.908;2024-02-14T15:07:01;16.40;58.30
9446;DHT22;4761;49.490;10.908;2024-02-14T15:09:27;16.40;58.30
9446;DHT22;4761;49.490;10.908;2024-02-14T15:11:53;16.30;58.30
9446;DHT22;4761;49.490;10.908;2024-02-14T15:14:19;16.30;58.30
9446;DHT22;4761;49.490;10.908;2024-02-14T15:16:44;16.30;58.40
9446;DHT22;4761;49.490;10.908;2024-02-14T15:19:10;16.30;58.40
9446;DHT22;4761;49.490;10.908;2024-02-14T15:21:36;16.30;58.50
9446;DHT22;4761;49.490;10.908;2024-02-14T15:24:02;16.40;58.50
9446;DHT22;4761;49.490;10.908;2024-02-14T15:26:29;16.30;58.40
9446;DHT22;4761;49.490;10.908;2024-02-14T15:28:55;16.30;58.50
9446;DHT22;4761;49.490;10.908;2024-02-14T15:31:43;16.30;58.60
9446;DHT22;4761;49.490;10.908;2024-02-14T15:34:28;16.40;58.70
9446;DHT22;4761;49.490;10.908;2024-02-14T15:36:54;16.40;58.80
9446;DHT22;4761;49.490;10.908;2024-02-14T15:39:20;16.40;58.80